Bellingham International Airport Bellingham US
ICAO: KBLI
IATA: BLI
Category: Medium
Scheduled Services: Yes

Elevation: 170 ft
TransAlt. 18000 ft.

Airport Communications:
VICTORIA APP/DEP:132.7
ATIS:134.45
CTAF:124.9
GND:127.4
SEATTLE RDO:122.15
TWR:124.9
UNICOM:122.95

KBLI Zoom In..

Runways:

(A) RW 16 length 6701 ft width 150 ft
ILS 108.50 / hdg 160

(B) RW 34 length 6701 ft width 150 ft
---- / hdg 340

Location; KBLI
Day. 14 / Time. 14.00 Zulu
* Altimeter: 29.96
* Temperature: 13° c. 55.4°f.
* Wind from: 000° Speed 00 kn.
Dewpoint: 11° c.
Visibility: 1 Statute Miles.
Clouds: Broken 2300 ft.
Conditions: Mist.

KBLI 141400Z 00000KT 1SM R16/0800VP6000FT BR BKN023 13/11 A2996 RMK AO2 T01280111


Wind - Calm.

 
 
jpsmedia.com for Web Design worldairports.se 2018   terms of use